sensor_id;sensor_type;location;lat;lon;timestamp;P1;durP1;ratioP1;P2;durP2;ratioP2
48791;SDS011;34587;48.816;9.420;2024-03-23T00:55:36;10.00;;;4.80;;
48791;SDS011;34587;48.816;9.420;2024-03-23T00:58:01;11.27;;;5.40;;
48791;SDS011;34587;48.816;9.420;2024-03-23T05:16:36;10.55;;;6.40;;
48791;SDS011;34587;48.816;9.420;2024-03-23T05:19:01;12.20;;;6.43;;
48791;SDS011;34587;48.816;9.420;2024-03-23T05:21:27;7.05;;;5.40;;
48791;SDS011;34587;48.816;9.420;2024-03-23T05:23:53;12.75;;;6.38;;
48791;SDS011;34587;48.816;9.420;2024-03-23T05:26:19;11.23;;;5.65;;
48791;SDS011;34587;48.816;9.420;2024-03-23T05:28:44;14.05;;;6.13;;
48791;SDS011;34587;48.816;9.420;2024-03-23T05:31:09;10.23;;;6.80;;
48791;SDS011;34587;48.816;9.420;2024-03-23T05:33:37;13.20;;;5.93;;
48791;SDS011;34587;48.816;9.420;2024-03-23T05:36:03;10.35;;;7.30;;
48791;SDS011;34587;48.816;9.420;2024-03-23T05:38:29;10.20;;;7.00;;
48791;SDS011;34587;48.816;9.420;2024-03-23T05:40:58;14.90;;;8.63;;
48791;SDS011;34587;48.816;9.420;2024-03-23T05:43:24;18.23;;;8.55;;
48791;SDS011;34587;48.816;9.420;2024-03-23T05:45:53;14.70;;;7.97;;
48791;SDS011;34587;48.816;9.420;2024-03-23T05:48:22;15.70;;;8.73;;
48791;SDS011;34587;48.816;9.420;2024-03-23T05:50:48;20.05;;;9.27;;
48791;SDS011;34587;48.816;9.420;2024-03-23T05:53:17;19.50;;;8.85;;
48791;SDS011;34587;48.816;9.420;2024-03-23T05:55:43;14.95;;;9.68;;
48791;SDS011;34587;48.816;9.420;2024-03-23T05:58:09;13.93;;;8.80;;
48791;SDS011;34587;48.816;9.420;2024-03-23T06:00:35;17.45;;;8.85;;
48791;SDS011;34587;48.816;9.420;2024-03-23T06:03:00;15.05;;;7.80;;
48791;SDS011;34587;48.816;9.420;2024-03-23T06:05:26;11.80;;;6.78;;
48791;SDS011;34587;48.816;9.420;2024-03-23T06:07:51;12.70;;;5.70;;
48791;SDS011;34587;48.816;9.420;2024-03-23T06:10:17;9.68;;;5.13;;
48791;SDS011;34587;48.816;9.420;2024-03-23T06:12:43;7.30;;;3.72;;
48791;SDS011;34587;48.816;9.420;2024-03-23T06:15:09;7.18;;;3.65;;
48791;SDS011;34587;48.816;9.420;2024-03-23T06:17:38;8.82;;;4.25;;
48791;SDS011;34587;48.816;9.420;2024-03-23T06:20:04;6.40;;;4.50;;
48791;SDS011;34587;48.816;9.420;2024-03-23T06:22:33;6.43;;;4.55;;
48791;SDS011;34587;48.816;9.420;2024-03-23T06:24:58;5.10;;;3.45;;
48791;SDS011;34587;48.816;9.420;2024-03-23T06:27:24;5.75;;;3.50;;
48791;SDS011;34587;48.816;9.420;2024-03-23T06:29:49;3.97;;;2.88;;
48791;SDS011;34587;48.816;9.420;2024-03-23T06:32:14;5.00;;;2.80;;
48791;SDS011;34587;48.816;9.420;2024-03-23T06:34:43;2.67;;;2.20;;
48791;SDS011;34587;48.816;9.420;2024-03-23T06:37:08;3.67;;;2.43;;
48791;SDS011;34587;48.816;9.420;2024-03-23T06:39:35;2.58;;;2.08;;
48791;SDS011;34587;48.816;9.420;2024-03-23T06:42:01;2.80;;;2.03;;
48791;SDS011;34587;48.816;9.420;2024-03-23T06:44:27;3.88;;;2.33;;
48791;SDS011;34587;48.816;9.420;2024-03-23T06:46:52;4.22;;;1.90;;
48791;SDS011;34587;48.816;9.420;2024-03-23T06:49:17;9.05;;;2.13;;
48791;SDS011;34587;48.816;9.420;2024-03-23T06:51:44;4.47;;;1.42;;
48791;SDS011;34587;48.816;9.420;2024-03-23T06:54:10;2.08;;;1.58;;
48791;SDS011;34587;48.816;9.420;2024-03-23T06:56:35;1.50;;;1.40;;
48791;SDS011;34587;48.816;9.420;2024-03-23T06:59:01;1.95;;;1.73;;
48791;SDS011;34587;48.816;9.420;2024-03-23T07:01:26;1.08;;;1.00;;
48791;SDS011;34587;48.816;9.420;2024-03-23T07:03:51;2.20;;;1.25;;
48791;SDS011;34587;48.816;9.420;2024-03-23T07:06:17;1.58;;;1.27;;
48791;SDS011;34587;48.816;9.420;2024-03-23T07:08:42;3.53;;;1.30;;
48791;SDS011;34587;48.816;9.420;2024-03-23T07:11:07;0.75;;;0.75;;
48791;SDS011;34587;48.816;9.420;2024-03-23T07:13:32;1.17;;;1.02;;
48791;SDS011;34587;48.816;9.420;2024-03-23T07:15:58;0.60;;;0.60;;
48791;SDS011;34587;48.816;9.420;2024-03-23T07:18:24;0.68;;;0.68;;
48791;SDS011;34587;48.816;9.420;2024-03-23T07:20:56;0.65;;;0.63;;
48791;SDS011;34587;48.816;9.420;2024-03-23T07:23:23;0.93;;;0.93;;
48791;SDS011;34587;48.816;9.420;2024-03-23T07:25:58;1.38;;;0.77;;
48791;SDS011;34587;48.816;9.420;2024-03-23T07:28:24;1.00;;;0.90;;
48791;SDS011;34587;48.816;9.420;2024-03-23T07:31:03;0.60;;;0.60;;
48791;SDS011;34587;48.816;9.420;2024-03-23T07:33:29;0.60;;;0.60;;
48791;SDS011;34587;48.816;9.420;2024-03-23T07:35:54;0.70;;;0.70;;
48791;SDS011;34587;48.816;9.420;2024-03-23T07:38:19;0.73;;;0.73;;
48791;SDS011;34587;48.816;9.420;2024-03-23T07:40:45;0.90;;;0.90;;
48791;SDS011;34587;48.816;9.420;2024-03-23T07:43:10;1.00;;;0.90;;
48791;SDS011;34587;48.816;9.420;2024-03-23T07:45:35;0.60;;;0.60;;
48791;SDS011;34587;48.816;9.420;2024-03-23T07:48:02;0.50;;;0.50;;
48791;SDS011;34587;48.816;9.420;2024-03-23T07:50:28;0.85;;;0.60;;
48791;SDS011;34587;48.816;9.420;2024-03-23T07:52:53;0.73;;;0.65;;
48791;SDS011;34587;48.816;9.420;2024-03-23T07:55:19;1.02;;;0.70;;
48791;SDS011;34587;48.816;9.420;2024-03-23T07:57:44;1.95;;;0.60;;
48791;SDS011;34587;48.816;9.420;2024-03-23T08:00:09;0.45;;;0.45;;
48791;SDS011;34587;48.816;9.420;2024-03-23T08:02:35;0.70;;;0.70;;
48791;SDS011;34587;48.816;9.420;2024-03-23T08:05:00;0.60;;;0.60;;
48791;SDS011;34587;48.816;9.420;2024-03-23T08:07:26;0.50;;;0.50;;
48791;SDS011;34587;48.816;9.420;2024-03-23T08:09:51;0.82;;;0.70;;
48791;SDS011;34587;48.816;9.420;2024-03-23T08:12:16;2.28;;;1.30;;
48791;SDS011;34587;48.816;9.420;2024-03-23T08:14:42;2.83;;;1.60;;
48791;SDS011;34587;48.816;9.420;2024-03-23T08:17:07;0.82;;;0.80;;
48791;SDS011;34587;48.816;9.420;2024-03-23T08:19:33;1.38;;;0.70;;
48791;SDS011;34587;48.816;9.420;2024-03-23T08:21:58;1.05;;;1.00;;
48791;SDS011;34587;48.816;9.420;2024-03-23T08:24:23;0.70;;;0.70;;
48791;SDS011;34587;48.816;9.420;2024-03-23T08:26:48;0.82;;;0.82;;
48791;SDS011;34587;48.816;9.420;2024-03-23T08:29:14;0.80;;;0.80;;
48791;SDS011;34587;48.816;9.420;2024-03-23T08:31:39;1.00;;;0.90;;
48791;SDS011;34587;48.816;9.420;2024-03-23T08:34:04;0.55;;;0.55;;
48791;SDS011;34587;48.816;9.420;2024-03-23T08:36:29;4.22;;;1.15;;
48791;SDS011;34587;48.816;9.420;2024-03-23T08:38:55;5.32;;;1.80;;
48791;SDS011;34587;48.816;9.420;2024-03-23T08:41:21;1.13;;;0.90;;
48791;SDS011;34587;48.816;9.420;2024-03-23T08:43:46;1.05;;;0.77;;
48791;SDS011;34587;48.816;9.420;2024-03-23T08:46:12;0.93;;;0.90;;
48791;SDS011;34587;48.816;9.420;2024-03-23T08:48:42;0.77;;;0.75;;
48791;SDS011;34587;48.816;9.420;2024-03-23T08:51:10;0.70;;;0.60;;
48791;SDS011;34587;48.816;9.420;2024-03-23T08:53:38;5.38;;;1.67;;
48791;SDS011;34587;48.816;9.420;2024-03-23T08:56:04;3.80;;;1.42;;
48791;SDS011;34587;48.816;9.420;2024-03-23T08:58:31;1.02;;;0.90;;
48791;SDS011;34587;48.816;9.420;2024-03-23T09:01:02;1.30;;;0.50;;
48791;SDS011;34587;48.816;9.420;2024-03-23T09:03:29;1.58;;;1.15;;
48791;SDS011;34587;48.816;9.420;2024-03-23T09:05:54;3.58;;;1.70;;
48791;SDS011;34587;48.816;9.420;2024-03-23T09:08:20;3.80;;;1.35;;
48791;SDS011;34587;48.816;9.420;2024-03-23T09:10:47;2.83;;;1.15;;
48791;SDS011;34587;48.816;9.420;2024-03-23T09:13:13;1.92;;;1.63;;
48791;SDS011;34587;48.816;9.420;2024-03-23T09:15:45;7.75;;;2.30;;
48791;SDS011;34587;48.816;9.420;2024-03-23T09:18:12;3.00;;;1.52;;
48791;SDS011;34587;48.816;9.420;2024-03-23T09:20:37;1.15;;;1.05;;
48791;SDS011;34587;48.816;9.420;2024-03-23T09:23:04;2.17;;;1.17;;
48791;SDS011;34587;48.816;9.420;2024-03-23T09:25:29;1.25;;;1.05;;
48791;SDS011;34587;48.816;9.420;2024-03-23T09:27:55;3.83;;;1.20;;
48791;SDS011;34587;48.816;9.420;2024-03-23T09:30:20;3.80;;;0.90;;
48791;SDS011;34587;48.816;9.420;2024-03-23T09:32:45;5.38;;;1.42;;
48791;SDS011;34587;48.816;9.420;2024-03-23T09:35:11;2.58;;;1.30;;
48791;SDS011;34587;48.816;9.420;2024-03-23T09:37:37;2.40;;;1.40;;
48791;SDS011;34587;48.816;9.420;2024-03-23T09:40:05;5.28;;;1.90;;
48791;SDS011;34587;48.816;9.420;2024-03-23T09:42:32;1.40;;;1.27;;
48791;SDS011;34587;48.816;9.420;2024-03-23T09:44:58;1.73;;;1.40;;
48791;SDS011;34587;48.816;9.420;2024-03-23T09:47:25;5.80;;;1.60;;
48791;SDS011;34587;48.816;9.420;2024-03-23T09:49:51;5.18;;;1.88;;
48791;SDS011;34587;48.816;9.420;2024-03-23T09:52:17;4.13;;;1.95;;
48791;SDS011;34587;48.816;9.420;2024-03-23T09:54:42;4.82;;;1.50;;
48791;SDS011;34587;48.816;9.420;2024-03-23T09:57:07;6.75;;;2.35;;
48791;SDS011;34587;48.816;9.420;2024-03-23T09:59:33;5.63;;;1.70;;
48791;SDS011;34587;48.816;9.420;2024-03-23T10:01:59;6.43;;;1.58;;
48791;SDS011;34587;48.816;9.420;2024-03-23T10:04:38;8.48;;;1.95;;
48791;SDS011;34587;48.816;9.420;2024-03-23T10:07:15;6.78;;;2.17;;
48791;SDS011;34587;48.816;9.420;2024-03-23T10:09:43;3.78;;;1.90;;
48791;SDS011;34587;48.816;9.420;2024-03-23T10:12:12;7.75;;;2.78;;
48791;SDS011;34587;48.816;9.420;2024-03-23T10:14:39;8.60;;;1.85;;
48791;SDS011;34587;48.816;9.420;2024-03-23T10:17:18;11.10;;;2.78;;
48791;SDS011;34587;48.816;9.420;2024-03-23T10:19:48;4.72;;;1.80;;
48791;SDS011;34587;48.816;9.420;2024-03-23T10:22:17;3.28;;;1.77;;
48791;SDS011;34587;48.816;9.420;2024-03-23T10:24:42;7.68;;;2.42;;
48791;SDS011;34587;48.816;9.420;2024-03-23T10:27:07;12.68;;;1.77;;
48791;SDS011;34587;48.816;9.420;2024-03-23T10:29:33;2.63;;;1.55;;
48791;SDS011;34587;48.816;9.420;2024-03-23T10:32:08;5.70;;;1.85;;
48791;SDS011;34587;48.816;9.420;2024-03-23T10:34:34;3.83;;;1.77;;
48791;SDS011;34587;48.816;9.420;2024-03-23T10:37:01;6.45;;;1.83;;
48791;SDS011;34587;48.816;9.420;2024-03-23T10:39:27;4.97;;;2.25;;
48791;SDS011;34587;48.816;9.420;2024-03-23T10:41:54;2.30;;;1.60;;
48791;SDS011;34587;48.816;9.420;2024-03-23T10:44:21;10.48;;;2.10;;
48791;SDS011;34587;48.816;9.420;2024-03-23T10:46:50;6.83;;;1.60;;
48791;SDS011;34587;48.816;9.420;2024-03-23T10:49:15;3.97;;;1.73;;
48791;SDS011;34587;48.816;9.420;2024-03-23T10:51:41;4.18;;;1.80;;
48791;SDS011;34587;48.816;9.420;2024-03-23T10:54:06;3.20;;;1.65;;
48791;SDS011;34587;48.816;9.420;2024-03-23T10:56:32;6.55;;;2.30;;
48791;SDS011;34587;48.816;9.420;2024-03-23T10:59:01;9.85;;;1.92;;
48791;SDS011;34587;48.816;9.420;2024-03-23T11:01:28;6.00;;;2.75;;
48791;SDS011;34587;48.816;9.420;2024-03-23T11:03:53;3.13;;;1.65;;
48791;SDS011;34587;48.816;9.420;2024-03-23T11:06:34;4.47;;;2.33;;
48791;SDS011;34587;48.816;9.420;2024-03-23T11:09:03;3.38;;;1.77;;
48791;SDS011;34587;48.816;9.420;2024-03-23T11:11:29;4.88;;;2.60;;
48791;SDS011;34587;48.816;9.420;2024-03-23T11:13:57;10.32;;;3.28;;
48791;SDS011;34587;48.816;9.420;2024-03-23T11:16:28;5.88;;;2.55;;
48791;SDS011;34587;48.816;9.420;2024-03-23T11:22:01;7.32;;;3.22;;
48791;SDS011;34587;48.816;9.420;2024-03-23T11:24:27;8.82;;;4.05;;
48791;SDS011;34587;48.816;9.420;2024-03-23T11:26:52;7.05;;;3.20;;
48791;SDS011;34587;48.816;9.420;2024-03-23T11:29:18;9.30;;;3.83;;
48791;SDS011;34587;48.816;9.420;2024-03-23T11:31:52;13.32;;;3.65;;
48791;SDS011;34587;48.816;9.420;2024-03-23T11:34:18;5.05;;;3.22;;
48791;SDS011;34587;48.816;9.420;2024-03-23T11:36:45;4.60;;;3.17;;
48791;SDS011;34587;48.816;9.420;2024-03-23T11:39:11;10.13;;;3.58;;
48791;SDS011;34587;48.816;9.420;2024-03-23T11:44:22;7.67;;;2.43;;
48791;SDS011;34587;48.816;9.420;2024-03-23T11:46:49;6.15;;;2.17;;
48791;SDS011;34587;48.816;9.420;2024-03-23T11:51:47;7.55;;;2.10;;
48791;SDS011;34587;48.816;9.420;2024-03-23T11:54:12;2.67;;;1.95;;
48791;SDS011;34587;48.816;9.420;2024-03-23T11:56:38;4.13;;;1.70;;
48791;SDS011;34587;48.816;9.420;2024-03-23T11:59:03;2.95;;;1.70;;
48791;SDS011;34587;48.816;9.420;2024-03-23T12:01:28;2.30;;;1.55;;
48791;SDS011;34587;48.816;9.420;2024-03-23T12:03:53;3.47;;;1.70;;
48791;SDS011;34587;48.816;9.420;2024-03-23T12:06:19;5.03;;;2.17;;
48791;SDS011;34587;48.816;9.420;2024-03-23T12:08:44;2.50;;;1.83;;
48791;SDS011;34587;48.816;9.420;2024-03-23T12:11:13;2.20;;;1.58;;
48791;SDS011;34587;48.816;9.420;2024-03-23T12:13:41;6.00;;;1.85;;
48791;SDS011;34587;48.816;9.420;2024-03-23T12:16:17;2.63;;;1.50;;
48791;SDS011;34587;48.816;9.420;2024-03-23T12:18:45;2.35;;;1.40;;
48791;SDS011;34587;48.816;9.420;2024-03-23T12:21:15;18.58;;;10.55;;
48791;SDS011;34587;48.816;9.420;2024-03-23T12:23:41;3.65;;;1.90;;
48791;SDS011;34587;48.816;9.420;2024-03-23T12:26:09;4.18;;;1.60;;
48791;SDS011;34587;48.816;9.420;2024-03-23T12:28:35;4.70;;;2.40;;
48791;SDS011;34587;48.816;9.420;2024-03-23T12:31:00;3.10;;;1.60;;
48791;SDS011;34587;48.816;9.420;2024-03-23T12:33:25;8.32;;;3.03;;
48791;SDS011;34587;48.816;9.420;2024-03-23T12:35:50;7.05;;;1.45;;
48791;SDS011;34587;48.816;9.420;2024-03-23T12:38:16;3.08;;;1.40;;
48791;SDS011;34587;48.816;9.420;2024-03-23T12:40:45;8.23;;;1.60;;
48791;SDS011;34587;48.816;9.420;2024-03-23T12:43:12;8.43;;;1.95;;
48791;SDS011;34587;48.816;9.420;2024-03-23T12:45:37;5.78;;;1.25;;
48791;SDS011;34587;48.816;9.420;2024-03-23T12:48:03;5.68;;;1.30;;
48791;SDS011;34587;48.816;9.420;2024-03-23T12:50:28;3.92;;;1.50;;
48791;SDS011;34587;48.816;9.420;2024-03-23T12:52:54;1.80;;;1.23;;
48791;SDS011;34587;48.816;9.420;2024-03-23T12:55:19;3.15;;;1.30;;
48791;SDS011;34587;48.816;9.420;2024-03-23T12:57:45;5.40;;;1.60;;
48791;SDS011;34587;48.816;9.420;2024-03-23T13:00:10;2.92;;;0.90;;
48791;SDS011;34587;48.816;9.420;2024-03-23T13:02:37;8.88;;;1.50;;
48791;SDS011;34587;48.816;9.420;2024-03-23T13:05:05;3.53;;;1.50;;
48791;SDS011;34587;48.816;9.420;2024-03-23T13:07:33;4.82;;;1.60;;
48791;SDS011;34587;48.816;9.420;2024-03-23T13:09:58;3.53;;;1.77;;
48791;SDS011;34587;48.816;9.420;2024-03-23T13:12:23;5.82;;;1.35;;
48791;SDS011;34587;48.816;9.420;2024-03-23T13:14:49;4.97;;;2.00;;
48791;SDS011;34587;48.816;9.420;2024-03-23T13:17:14;6.60;;;1.45;;
48791;SDS011;34587;48.816;9.420;2024-03-23T13:19:40;6.43;;;2.38;;
48791;SDS011;34587;48.816;9.420;2024-03-23T13:22:06;9.38;;;1.98;;
48791;SDS011;34587;48.816;9.420;2024-03-23T13:24:31;5.32;;;2.17;;
48791;SDS011;34587;48.816;9.420;2024-03-23T13:26:57;6.05;;;2.03;;
48791;SDS011;34587;48.816;9.420;2024-03-23T13:29:23;5.15;;;2.20;;
48791;SDS011;34587;48.816;9.420;2024-03-23T13:31:49;6.70;;;2.35;;
48791;SDS011;34587;48.816;9.420;2024-03-23T13:34:15;4.40;;;1.27;;
48791;SDS011;34587;48.816;9.420;2024-03-23T13:36:42;3.17;;;0.80;;
48791;SDS011;34587;48.816;9.420;2024-03-23T13:39:08;6.47;;;1.58;;
48791;SDS011;34587;48.816;9.420;2024-03-23T13:41:45;4.43;;;1.75;;
48791;SDS011;34587;48.816;9.420;2024-03-23T13:44:11;3.78;;;1.50;;
48791;SDS011;34587;48.816;9.420;2024-03-23T13:46:37;4.85;;;1.50;;
48791;SDS011;34587;48.816;9.420;2024-03-23T13:49:19;4.85;;;1.33;;
48791;SDS011;34587;48.816;9.420;2024-03-23T13:51:51;3.03;;;1.30;;
48791;SDS011;34587;48.816;9.420;2024-03-23T13:54:16;6.82;;;1.38;;
48791;SDS011;34587;48.816;9.420;2024-03-23T13:56:41;12.15;;;1.90;;
48791;SDS011;34587;48.816;9.420;2024-03-23T13:59:07;8.10;;;2.28;;
48791;SDS011;34587;48.816;9.420;2024-03-23T14:01:32;6.80;;;2.13;;
48791;SDS011;34587;48.816;9.420;2024-03-23T14:03:57;7.38;;;2.10;;
48791;SDS011;34587;48.816;9.420;2024-03-23T14:06:23;7.72;;;1.38;;
48791;SDS011;34587;48.816;9.420;2024-03-23T14:08:49;3.60;;;1.35;;
48791;SDS011;34587;48.816;9.420;2024-03-23T14:11:14;6.20;;;1.55;;
48791;SDS011;34587;48.816;9.420;2024-03-23T14:13:39;1.48;;;0.98;;
48791;SDS011;34587;48.816;9.420;2024-03-23T14:16:05;4.15;;;0.90;;
48791;SDS011;34587;48.816;9.420;2024-03-23T14:18:31;2.55;;;1.30;;
48791;SDS011;34587;48.816;9.420;2024-03-23T14:20:57;6.18;;;1.05;;
48791;SDS011;34587;48.816;9.420;2024-03-23T14:23:24;6.07;;;1.10;;
48791;SDS011;34587;48.816;9.420;2024-03-23T14:25:59;2.17;;;1.08;;
48791;SDS011;34587;48.816;9.420;2024-03-23T14:28:24;4.15;;;1.20;;
48791;SDS011;34587;48.816;9.420;2024-03-23T14:30:50;7.90;;;1.63;;
48791;SDS011;34587;48.816;9.420;2024-03-23T14:33:16;6.47;;;1.50;;
48791;SDS011;34587;48.816;9.420;2024-03-23T14:35:42;1.55;;;0.90;;
48791;SDS011;34587;48.816;9.420;2024-03-23T14:38:08;5.30;;;1.30;;
48791;SDS011;34587;48.816;9.420;2024-03-23T14:40:33;0.90;;;0.90;;
48791;SDS011;34587;48.816;9.420;2024-03-23T14:42:59;1.75;;;1.05;;
48791;SDS011;34587;48.816;9.420;2024-03-23T14:45:24;1.55;;;0.95;;
48791;SDS011;34587;48.816;9.420;2024-03-23T14:47:50;1.40;;;0.98;;
48791;SDS011;34587;48.816;9.420;2024-03-23T14:50:16;1.20;;;1.13;;
48791;SDS011;34587;48.816;9.420;2024-03-23T14:52:43;15.55;;;7.40;;
48791;SDS011;34587;48.816;9.420;2024-03-23T14:55:09;1.73;;;1.25;;
48791;SDS011;34587;48.816;9.420;2024-03-23T14:57:34;8.82;;;1.38;;
48791;SDS011;34587;48.816;9.420;2024-03-23T15:00:00;5.13;;;1.08;;
48791;SDS011;34587;48.816;9.420;2024-03-23T15:02:25;1.85;;;1.23;;
48791;SDS011;34587;48.816;9.420;2024-03-23T15:04:52;1.25;;;1.00;;
48791;SDS011;34587;48.816;9.420;2024-03-23T15:07:19;1.40;;;0.88;;
48791;SDS011;34587;48.816;9.420;2024-03-23T15:09:44;3.92;;;1.20;;
48791;SDS011;34587;48.816;9.420;2024-03-23T15:12:09;1.48;;;1.35;;
48791;SDS011;34587;48.816;9.420;2024-03-23T15:14:35;2.30;;;0.75;;
48791;SDS011;34587;48.816;9.420;2024-03-23T15:17:00;3.83;;;1.48;;
48791;SDS011;34587;48.816;9.420;2024-03-23T15:19:29;3.05;;;1.20;;
48791;SDS011;34587;48.816;9.420;2024-03-23T15:21:54;1.13;;;0.98;;
48791;SDS011;34587;48.816;9.420;2024-03-23T15:24:20;5.32;;;1.08;;
48791;SDS011;34587;48.816;9.420;2024-03-23T15:26:45;1.65;;;0.90;;
48791;SDS011;34587;48.816;9.420;2024-03-23T15:29:11;5.15;;;1.20;;
48791;SDS011;34587;48.816;9.420;2024-03-23T15:31:40;5.88;;;1.17;;
48791;SDS011;34587;48.816;9.420;2024-03-23T15:34:05;1.15;;;1.05;;
48791;SDS011;34587;48.816;9.420;2024-03-23T15:36:34;1.95;;;0.90;;
48791;SDS011;34587;48.816;9.420;2024-03-23T15:39:00;2.25;;;1.08;;
48791;SDS011;34587;48.816;9.420;2024-03-23T15:41:25;2.92;;;0.90;;
48791;SDS011;34587;48.816;9.420;2024-03-23T15:43:51;1.60;;;0.80;;
48791;SDS011;34587;48.816;9.420;2024-03-23T15:46:17;0.80;;;0.80;;
48791;SDS011;34587;48.816;9.420;2024-03-23T15:48:44;3.30;;;0.70;;
48791;SDS011;34587;48.816;9.420;2024-03-23T15:51:11;1.48;;;0.88;;
48791;SDS011;34587;48.816;9.420;2024-03-23T15:53:37;2.25;;;1.10;;
48791;SDS011;34587;48.816;9.420;2024-03-23T15:56:02;2.55;;;0.80;;
48791;SDS011;34587;48.816;9.420;2024-03-23T15:58:29;0.60;;;0.57;;
48791;SDS011;34587;48.816;9.420;2024-03-23T16:01:02;4.57;;;1.15;;
48791;SDS011;34587;48.816;9.420;2024-03-23T16:03:34;1.35;;;1.00;;
48791;SDS011;34587;48.816;9.420;2024-03-23T16:06:00;2.00;;;1.00;;
48791;SDS011;34587;48.816;9.420;2024-03-23T16:08:26;4.70;;;0.90;;
48791;SDS011;34587;48.816;9.420;2024-03-23T16:10:52;1.02;;;0.80;;
48791;SDS011;34587;48.816;9.420;2024-03-23T16:13:18;1.95;;;0.90;;
48791;SDS011;34587;48.816;9.420;2024-03-23T16:15:45;1.42;;;0.82;;
48791;SDS011;34587;48.816;9.420;2024-03-23T16:18:10;2.83;;;0.82;;
48791;SDS011;34587;48.816;9.420;2024-03-23T16:20:36;5.30;;;0.88;;
48791;SDS011;34587;48.816;9.420;2024-03-23T16:23:01;1.35;;;1.08;;
48791;SDS011;34587;48.816;9.420;2024-03-23T16:25:27;2.33;;;0.77;;
48791;SDS011;34587;48.816;9.420;2024-03-23T16:27:52;4.35;;;1.20;;
48791;SDS011;34587;48.816;9.420;2024-03-23T16:30:18;16.25;;;2.95;;
48791;SDS011;34587;48.816;9.420;2024-03-23T16:32:45;0.88;;;0.88;;
48791;SDS011;34587;48.816;9.420;2024-03-23T16:35:12;7.15;;;1.52;;
48791;SDS011;34587;48.816;9.420;2024-03-23T16:37:37;3.00;;;1.67;;
48791;SDS011;34587;48.816;9.420;2024-03-23T16:40:03;1.55;;;1.05;;
48791;SDS011;34587;48.816;9.420;2024-03-23T16:42:29;2.78;;;1.00;;
48791;SDS011;34587;48.816;9.420;2024-03-23T16:44:54;0.77;;;0.77;;
48791;SDS011;34587;48.816;9.420;2024-03-23T16:47:20;1.75;;;0.90;;
48791;SDS011;34587;48.816;9.420;2024-03-23T16:49:45;0.88;;;0.70;;
48791;SDS011;34587;48.816;9.420;2024-03-23T16:52:11;1.35;;;0.90;;
48791;SDS011;34587;48.816;9.420;2024-03-23T16:54:36;5.93;;;1.08;;
48791;SDS011;34587;48.816;9.420;2024-03-23T16:57:01;0.98;;;0.82;;
48791;SDS011;34587;48.816;9.420;2024-03-23T16:59:27;0.70;;;0.70;;
48791;SDS011;34587;48.816;9.420;2024-03-23T17:01:53;0.70;;;0.70;;
48791;SDS011;34587;48.816;9.420;2024-03-23T17:04:18;0.70;;;0.70;;
48791;SDS011;34587;48.816;9.420;2024-03-23T17:06:47;1.38;;;0.75;;
48791;SDS011;34587;48.816;9.420;2024-03-23T17:09:12;2.70;;;1.23;;
48791;SDS011;34587;48.816;9.420;2024-03-23T17:11:38;4.47;;;1.90;;
48791;SDS011;34587;48.816;9.420;2024-03-23T17:14:03;2.15;;;1.20;;
48791;SDS011;34587;48.816;9.420;2024-03-23T17:16:29;8.23;;;2.13;;
48791;SDS011;34587;48.816;9.420;2024-03-23T17:18:56;11.63;;;2.15;;
48791;SDS011;34587;48.816;9.420;2024-03-23T17:21:22;2.10;;;1.45;;
48791;SDS011;34587;48.816;9.420;2024-03-23T17:23:48;5.43;;;2.42;;
48791;SDS011;34587;48.816;9.420;2024-03-23T17:26:13;2.55;;;2.05;;
48791;SDS011;34587;48.816;9.420;2024-03-23T17:28:40;2.45;;;1.60;;
48791;SDS011;34587;48.816;9.420;2024-03-23T17:31:05;3.05;;;1.90;;
48791;SDS011;34587;48.816;9.420;2024-03-23T17:33:30;3.22;;;1.30;;
48791;SDS011;34587;48.816;9.420;2024-03-23T17:35:56;2.63;;;1.67;;
48791;SDS011;34587;48.816;9.420;2024-03-23T17:38:21;2.33;;;1.17;;
48791;SDS011;34587;48.816;9.420;2024-03-23T17:40:47;1.45;;;1.20;;
48791;SDS011;34587;48.816;9.420;2024-03-23T17:43:12;7.90;;;1.08;;
48791;SDS011;34587;48.816;9.420;2024-03-23T17:45:38;2.80;;;1.20;;
48791;SDS011;34587;48.816;9.420;2024-03-23T17:48:04;1.55;;;1.10;;
48791;SDS011;34587;48.816;9.420;2024-03-23T17:50:29;2.28;;;1.30;;
48791;SDS011;34587;48.816;9.420;2024-03-23T17:52:56;4.00;;;1.75;;
48791;SDS011;34587;48.816;9.420;2024-03-23T17:55:21;1.42;;;1.25;;
48791;SDS011;34587;48.816;9.420;2024-03-23T17:57:46;2.97;;;2.03;;
48791;SDS011;34587;48.816;9.420;2024-03-23T18:00:12;3.97;;;1.42;;
48791;SDS011;34587;48.816;9.420;2024-03-23T18:02:39;4.47;;;1.42;;
48791;SDS011;34587;48.816;9.420;2024-03-23T18:05:05;1.00;;;1.00;;
48791;SDS011;34587;48.816;9.420;2024-03-23T18:07:31;1.02;;;0.93;;
48791;SDS011;34587;48.816;9.420;2024-03-23T18:09:56;0.77;;;0.77;;
48791;SDS011;34587;48.816;9.420;2024-03-23T18:12:21;0.90;;;0.90;;
48791;SDS011;34587;48.816;9.420;2024-03-23T18:14:48;3.92;;;1.00;;
48791;SDS011;34587;48.816;9.420;2024-03-23T18:17:13;1.63;;;1.15;;
48791;SDS011;34587;48.816;9.420;2024-03-23T18:19:39;1.15;;;1.00;;
48791;SDS011;34587;48.816;9.420;2024-03-23T18:22:04;6.13;;;1.67;;
48791;SDS011;34587;48.816;9.420;2024-03-23T18:24:29;2.10;;;1.10;;
48791;SDS011;34587;48.816;9.420;2024-03-23T18:26:55;0.90;;;0.90;;
48791;SDS011;34587;48.816;9.420;2024-03-23T18:29:23;4.05;;;1.20;;
48791;SDS011;34587;48.816;9.420;2024-03-23T18:31:48;7.13;;;2.83;;
48791;SDS011;34587;48.816;9.420;2024-03-23T18:34:15;8.98;;;3.67;;
48791;SDS011;34587;48.816;9.420;2024-03-23T18:36:40;6.88;;;2.65;;
48791;SDS011;34587;48.816;9.420;2024-03-23T18:39:05;4.50;;;2.33;;
48791;SDS011;34587;48.816;9.420;2024-03-23T18:41:32;3.22;;;2.13;;
48791;SDS011;34587;48.816;9.420;2024-03-23T18:43:57;6.03;;;2.00;;
48791;SDS011;34587;48.816;9.420;2024-03-23T18:46:23;3.92;;;3.13;;
48791;SDS011;34587;48.816;9.420;2024-03-23T18:48:49;3.60;;;2.22;;
48791;SDS011;34587;48.816;9.420;2024-03-23T18:51:14;2.13;;;1.92;;
48791;SDS011;34587;48.816;9.420;2024-03-23T18:53:39;4.78;;;3.13;;
48791;SDS011;34587;48.816;9.420;2024-03-23T18:56:05;3.10;;;2.42;;
48791;SDS011;34587;48.816;9.420;2024-03-23T18:58:31;7.18;;;2.58;;
48791;SDS011;34587;48.816;9.420;2024-03-23T19:01:00;6.28;;;2.45;;
48791;SDS011;34587;48.816;9.420;2024-03-23T19:03:30;4.90;;;2.60;;
48791;SDS011;34587;48.816;9.420;2024-03-23T19:05:56;2.55;;;1.92;;
48791;SDS011;34587;48.816;9.420;2024-03-23T19:08:23;2.38;;;1.63;;
48791;SDS011;34587;48.816;9.420;2024-03-23T19:10:58;2.55;;;1.63;;
48791;SDS011;34587;48.816;9.420;2024-03-23T19:13:24;4.40;;;2.25;;
48791;SDS011;34587;48.816;9.420;2024-03-23T19:15:51;4.38;;;1.90;;
48791;SDS011;34587;48.816;9.420;2024-03-23T19:18:17;2.70;;;1.55;;
48791;SDS011;34587;48.816;9.420;2024-03-23T19:20:42;3.00;;;1.75;;
48791;SDS011;34587;48.816;9.420;2024-03-23T19:23:08;6.30;;;2.13;;
48791;SDS011;34587;48.816;9.420;2024-03-23T19:25:34;3.53;;;1.85;;
48791;SDS011;34587;48.816;9.420;2024-03-23T19:28:00;3.38;;;2.03;;
48791;SDS011;34587;48.816;9.420;2024-03-23T19:30:29;3.97;;;2.00;;
48791;SDS011;34587;48.816;9.420;2024-03-23T19:32:55;8.15;;;2.35;;
48791;SDS011;34587;48.816;9.420;2024-03-23T19:35:22;1.70;;;1.60;;
48791;SDS011;34587;48.816;9.420;2024-03-23T19:37:48;3.88;;;1.92;;
48791;SDS011;34587;48.816;9.420;2024-03-23T19:40:14;3.55;;;2.70;;
48791;SDS011;34587;48.816;9.420;2024-03-23T19:42:39;1.67;;;1.58;;
48791;SDS011;34587;48.816;9.420;2024-03-23T19:45:04;1.60;;;1.50;;
48791;SDS011;34587;48.816;9.420;2024-03-23T19:47:30;4.20;;;2.28;;
48791;SDS011;34587;48.816;9.420;2024-03-23T19:49:55;6.97;;;5.57;;
48791;SDS011;34587;48.816;9.420;2024-03-23T19:52:20;13.90;;;8.75;;
48791;SDS011;34587;48.816;9.420;2024-03-23T19:54:46;15.88;;;9.27;;
48791;SDS011;34587;48.816;9.420;2024-03-23T19:57:11;5.13;;;4.22;;
48791;SDS011;34587;48.816;9.420;2024-03-23T19:59:36;11.80;;;8.05;;